Panagia — V2OQ5 — position and weather

sailwx.info

Track history (hours):
 
Tides and Currents Weather Stations Pressure Air Temp Water Temp Dewpoint Dewpoint Depression Visibility Wind Speed Wind Dir Waves Ship Positions

Panagia

Last reported at 2017-May-13 21:25 UTC. Time now 2017-May-25 06:55 UTC.
Position N 36°18' E 014°50'.
Warning: this ship's position is 11 days out of date.

Length 120 m; draft 7.1 m.

Type: Cargo ship. MMSI: 304610000.

Date/timePositionNaut miles runAvg speedWind from/ knotsBaromVisibWave heightAir tempDewpointWater temp
2017-May-13 21:25N 36°18' E 014°50'613.9
2017-May-13 21:00N 36°20' E 014°43'714.3
2017-May-13 20:30N 36°22' E 014°35'1214.3
2017-May-13 19:41N 36°25' E 014°21'414.2
2017-May-13 19:26N 36°26' E 014°17'614.2
2017-May-13 19:00N 36°28' E 014°10'2213.7
2017-May-13 17:23N 36°36' E 013°44'513.7
2017-May-13 17:00N 36°37' E 013°37'713.8
2017-May-13 16:30N 36°39' E 013°29'713.7
2017-May-13 16:00N 36°42' E 013°21'713.6
2017-May-13 15:30N 36°43' E 013°13'713.9
2017-May-13 15:00N 36°45' E 013°05'714.2
2017-May-13 14:30N 36°48' E 012°56'  
2017-May-07 11:39N 36°42' W 024°01'212.2
2017-May-07 11:31N 36°42' W 024°03'612.5
2017-May-07 11:00N 36°42' W 024°11'612.4
2017-May-07 10:30N 36°42' W 024°18'612.4
2017-May-07 10:00N 36°42' W 024°26'612.4
2017-May-07 09:30N 36°42' W 024°34'612.3
2017-May-07 09:00N 36°43' W 024°41'611.6
2017-May-07 08:30N 36°44' W 024°48'612.9
2017-May-07 08:00N 36°44' W 024°56'612.7
2017-May-07 07:31N 36°45' W 025°04'712.9
2017-May-07 07:00N 36°45' W 025°12'612.5
2017-May-07 06:30N 36°46' W 025°20'612.6
2017-May-07 06:01N 36°46' W 025°28'612.6
2017-May-07 05:30N 36°46' W 025°36'612.9
2017-May-07 05:00N 36°47' W 025°44'612.9
2017-May-07 04:30N 36°47' W 025°52'612.7
2017-May-07 04:00N 36°47' W 025°60'  
Track history (hours):
 
Tides and Currents Weather Stations Pressure Air Temp Water Temp Dewpoint Dewpoint Depression Visibility Wind Speed Wind Dir Waves Ship Positions

Panagia

Last reported at 2017-May-13 21:25 UTC. Time now 2017-May-25 06:55 UTC.
Position N 36°18' E 014°50'.
Warning: this ship's position is 11 days out of date.

Length 120 m; draft 7.1 m.

Type: Cargo ship. MMSI: 304610000.

Date/timePositionNaut miles runAvg speedWind from/ knotsBaromVisibWave heightAir tempDewpointWater temp
2017-May-13 21:25N 36°18' E 014°50'613.9
2017-May-13 21:00N 36°20' E 014°43'714.3
2017-May-13 20:30N 36°22' E 014°35'1214.3
2017-May-13 19:41N 36°25' E 014°21'414.2
2017-May-13 19:26N 36°26' E 014°17'614.2
2017-May-13 19:00N 36°28' E 014°10'2213.7
2017-May-13 17:23N 36°36' E 013°44'513.7
2017-May-13 17:00N 36°37' E 013°37'713.8
2017-May-13 16:30N 36°39' E 013°29'713.7
2017-May-13 16:00N 36°42' E 013°21'713.6
2017-May-13 15:30N 36°43' E 013°13'713.9
2017-May-13 15:00N 36°45' E 013°05'714.2
2017-May-13 14:30N 36°48' E 012°56'  
2017-May-07 11:39N 36°42' W 024°01'212.2
2017-May-07 11:31N 36°42' W 024°03'612.5
2017-May-07 11:00N 36°42' W 024°11'612.4
2017-May-07 10:30N 36°42' W 024°18'612.4
2017-May-07 10:00N 36°42' W 024°26'612.4
2017-May-07 09:30N 36°42' W 024°34'612.3
2017-May-07 09:00N 36°43' W 024°41'611.6
2017-May-07 08:30N 36°44' W 024°48'612.9
2017-May-07 08:00N 36°44' W 024°56'612.7
2017-May-07 07:31N 36°45' W 025°04'712.9
2017-May-07 07:00N 36°45' W 025°12'612.5
2017-May-07 06:30N 36°46' W 025°20'612.6
2017-May-07 06:01N 36°46' W 025°28'612.6
2017-May-07 05:30N 36°46' W 025°36'612.9
2017-May-07 05:00N 36°47' W 025°44'612.9
2017-May-07 04:30N 36°47' W 025°52'612.7
2017-May-07 04:00N 36°47' W 025°60'  

Dump ship's entire track history